sensor_id;sensor_type;location;lat;lon;timestamp;pressure;altitude;pressure_sealevel;temperature;humidity
17615;BME280;8926;49.720;6.576;2022-07-29T00:00:53;99442.59;;;22.93;45.13
17615;BME280;8926;49.720;6.576;2022-07-29T00:03:19;99446.25;;;22.92;44.89
17615;BME280;8926;49.720;6.576;2022-07-29T00:05:44;99442.59;;;22.93;44.87
17615;BME280;8926;49.720;6.576;2022-07-29T00:08:09;99439.25;;;22.91;44.87
17615;BME280;8926;49.720;6.576;2022-07-29T00:10:35;99436.44;;;22.93;45.17
17615;BME280;8926;49.720;6.576;2022-07-29T00:13:00;99435.25;;;22.95;44.43
17615;BME280;8926;49.720;6.576;2022-07-29T00:15:26;99442.59;;;22.93;44.59
17615;BME280;8926;49.720;6.576;2022-07-29T00:17:51;99437.44;;;22.92;44.96
17615;BME280;8926;49.720;6.576;2022-07-29T00:20:16;99438.91;;;22.94;44.57
17615;BME280;8926;49.720;6.576;2022-07-29T00:22:42;99442.09;;;22.90;44.95
17615;BME280;8926;49.720;6.576;2022-07-29T00:25:08;99434.28;;;22.88;44.88
17615;BME280;8926;49.720;6.576;2022-07-29T00:27:35;99433.66;;;22.86;45.04
17615;BME280;8926;49.720;6.576;2022-07-29T00:30:00;99435.13;;;22.89;44.57
17615;BME280;8926;49.720;6.576;2022-07-29T00:32:26;99425.66;;;22.86;45.10
17615;BME280;8926;49.720;6.576;2022-07-29T00:34:51;99424.16;;;22.84;45.64
17615;BME280;8926;49.720;6.576;2022-07-29T00:37:35;99415.16;;;22.77;45.95
17615;BME280;8926;49.720;6.576;2022-07-29T00:40:00;99418.34;;;22.72;45.90
17615;BME280;8926;49.720;6.576;2022-07-29T00:42:26;99411.69;;;22.68;46.14
17615;BME280;8926;49.720;6.576;2022-07-29T00:44:51;99410.38;;;22.64;45.77
17615;BME280;8926;49.720;6.576;2022-07-29T00:47:16;99413.22;;;22.62;45.36
17615;BME280;8926;49.720;6.576;2022-07-29T00:49:42;99411.09;;;22.58;45.33
17615;BME280;8926;49.720;6.576;2022-07-29T00:52:09;99418.75;;;22.53;45.44
17615;BME280;8926;49.720;6.576;2022-07-29T00:54:35;99415.78;;;22.48;46.32
17615;BME280;8926;49.720;6.576;2022-07-29T00:57:01;99413.78;;;22.42;46.35
17615;BME280;8926;49.720;6.576;2022-07-29T00:59:27;99410.63;;;22.38;46.59
17615;BME280;8926;49.720;6.576;2022-07-29T01:01:53;99418.78;;;22.37;46.61
17615;BME280;8926;49.720;6.576;2022-07-29T01:04:19;99419.16;;;22.33;46.28
17615;BME280;8926;49.720;6.576;2022-07-29T01:06:45;99425.47;;;22.24;47.11
17615;BME280;8926;49.720;6.576;2022-07-29T01:09:10;99417.34;;;22.18;47.03
17615;BME280;8926;49.720;6.576;2022-07-29T01:11:36;99410.84;;;22.12;47.33
17615;BME280;8926;49.720;6.576;2022-07-29T01:14:03;99409.19;;;22.11;46.83
17615;BME280;8926;49.720;6.576;2022-07-29T01:16:32;99412.19;;;22.00;47.42
17615;BME280;8926;49.720;6.576;2022-07-29T01:19:13;99409.53;;;21.92;47.84
17615;BME280;8926;49.720;6.576;2022-07-29T01:21:51;99405.19;;;21.83;48.65
17615;BME280;8926;49.720;6.576;2022-07-29T01:27:12;99416.19;;;21.72;48.88
17615;BME280;8926;49.720;6.576;2022-07-29T01:29:49;99416.53;;;21.68;48.98
17615;BME280;8926;49.720;6.576;2022-07-29T01:32:20;99408.88;;;21.65;48.67
17615;BME280;8926;49.720;6.576;2022-07-29T01:34:51;99408.03;;;21.65;49.28
17615;BME280;8926;49.720;6.576;2022-07-29T01:37:22;99409.19;;;21.62;49.19
17615;BME280;8926;49.720;6.576;2022-07-29T01:39:51;99408.69;;;21.59;49.12
17615;BME280;8926;49.720;6.576;2022-07-29T01:42:22;99415.53;;;21.53;49.20
17615;BME280;8926;49.720;6.576;2022-07-29T01:44:55;99413.19;;;21.50;49.46
17615;BME280;8926;49.720;6.576;2022-07-29T01:47:26;99405.03;;;21.44;49.11
17615;BME280;8926;49.720;6.576;2022-07-29T01:49:56;99411.34;;;21.43;49.83
17615;BME280;8926;49.720;6.576;2022-07-29T01:52:27;99417.81;;;21.40;49.24
17615;BME280;8926;49.720;6.576;2022-07-29T01:54:58;99420.50;;;21.40;48.50
17615;BME280;8926;49.720;6.576;2022-07-29T01:57:29;99425.63;;;21.42;49.63
17615;BME280;8926;49.720;6.576;2022-07-29T01:59:57;99420.16;;;21.43;48.94
17615;BME280;8926;49.720;6.576;2022-07-29T02:02:24;99423.16;;;21.40;49.02
17615;BME280;8926;49.720;6.576;2022-07-29T02:04:52;99429.44;;;21.39;48.78
17615;BME280;8926;49.720;6.576;2022-07-29T02:07:21;99422.47;;;21.38;49.60
17615;BME280;8926;49.720;6.576;2022-07-29T02:09:47;99426.44;;;21.34;49.71
17615;BME280;8926;49.720;6.576;2022-07-29T02:12:16;99423.13;;;21.32;49.80
17615;BME280;8926;49.720;6.576;2022-07-29T02:14:46;99423.47;;;21.29;50.05
17615;BME280;8926;49.720;6.576;2022-07-29T02:17:13;99420.00;;;21.28;49.33
17615;BME280;8926;49.720;6.576;2022-07-29T02:19:43;99416.50;;;21.28;49.47
17615;BME280;8926;49.720;6.576;2022-07-29T02:22:10;99414.31;;;21.31;49.13
17615;BME280;8926;49.720;6.576;2022-07-29T02:24:38;99412.50;;;21.32;49.10
17615;BME280;8926;49.720;6.576;2022-07-29T02:27:06;99417.81;;;21.32;49.40
17615;BME280;8926;49.720;6.576;2022-07-29T02:29:32;99414.50;;;21.30;49.14
17615;BME280;8926;49.720;6.576;2022-07-29T02:31:58;99415.16;;;21.24;49.50
17615;BME280;8926;49.720;6.576;2022-07-29T02:34:26;99421.75;;;21.20;49.46
17615;BME280;8926;49.720;6.576;2022-07-29T02:36:54;99418.56;;;21.08;50.77
17615;BME280;8926;49.720;6.576;2022-07-29T02:39:21;99420.22;;;21.01;50.69
17615;BME280;8926;49.720;6.576;2022-07-29T02:41:50;99419.72;;;20.97;50.93
17615;BME280;8926;49.720;6.576;2022-07-29T02:44:18;99411.75;;;20.97;51.54
17615;BME280;8926;49.720;6.576;2022-07-29T02:46:58;99415.53;;;20.95;51.28
17615;BME280;8926;49.720;6.576;2022-07-29T02:49:37;99424.00;;;20.90;50.92
17615;BME280;8926;49.720;6.576;2022-07-29T02:52:08;99427.13;;;20.86;51.28
17615;BME280;8926;49.720;6.576;2022-07-29T02:54:39;99416.66;;;20.84;51.82
17615;BME280;8926;49.720;6.576;2022-07-29T02:57:14;99429.94;;;20.84;51.81
17615;BME280;8926;49.720;6.576;2022-07-29T02:59:45;99431.09;;;20.82;51.82
17615;BME280;8926;49.720;6.576;2022-07-29T03:02:13;99428.78;;;20.79;51.52
17615;BME280;8926;49.720;6.576;2022-07-29T03:04:41;99432.59;;;20.76;51.50
17615;BME280;8926;49.720;6.576;2022-07-29T03:07:08;99431.69;;;20.67;51.38
17615;BME280;8926;49.720;6.576;2022-07-29T03:09:34;99434.16;;;20.61;51.14
17615;BME280;8926;49.720;6.576;2022-07-29T03:12:01;99442.06;;;20.53;52.63
17615;BME280;8926;49.720;6.576;2022-07-29T03:14:26;99437.09;;;20.50;53.32
17615;BME280;8926;49.720;6.576;2022-07-29T03:16:52;99446.34;;;20.46;53.25
17615;BME280;8926;49.720;6.576;2022-07-29T03:19:19;99445.00;;;20.42;53.58
17615;BME280;8926;49.720;6.576;2022-07-29T03:21:45;99443.66;;;20.38;53.58
17615;BME280;8926;49.720;6.576;2022-07-29T03:24:24;99448.97;;;20.38;53.48
17615;BME280;8926;49.720;6.576;2022-07-29T03:26:50;99443.94;;;20.34;52.64
17615;BME280;8926;49.720;6.576;2022-07-29T03:29:15;99449.84;;;20.28;52.90
17615;BME280;8926;49.720;6.576;2022-07-29T03:31:41;99445.72;;;20.26;52.74
17615;BME280;8926;49.720;6.576;2022-07-29T03:34:06;99443.84;;;20.18;52.90
17615;BME280;8926;49.720;6.576;2022-07-29T03:36:31;99446.13;;;20.13;53.37
17615;BME280;8926;49.720;6.576;2022-07-29T03:38:57;99447.03;;;20.04;54.33
17615;BME280;8926;49.720;6.576;2022-07-29T03:41:22;99454.16;;;20.04;53.90
17615;BME280;8926;49.720;6.576;2022-07-29T03:43:51;99453.16;;;20.05;54.76
17615;BME280;8926;49.720;6.576;2022-07-29T03:46:17;99449.00;;;20.02;54.69
17615;BME280;8926;49.720;6.576;2022-07-29T03:48:46;99449.50;;;19.97;54.49
17615;BME280;8926;49.720;6.576;2022-07-29T03:51:13;99446.31;;;19.94;54.69
17615;BME280;8926;49.720;6.576;2022-07-29T03:53:39;99438.81;;;19.89;54.69
17615;BME280;8926;49.720;6.576;2022-07-29T03:56:06;99450.34;;;19.80;54.89
17615;BME280;8926;49.720;6.576;2022-07-29T03:58:32;99441.19;;;19.75;54.55
17615;BME280;8926;49.720;6.576;2022-07-29T04:00:58;99446.16;;;19.78;54.18
17615;BME280;8926;49.720;6.576;2022-07-29T04:03:23;99445.03;;;19.80;54.64
17615;BME280;8926;49.720;6.576;2022-07-29T04:06:00;99444.19;;;19.80;54.65
17615;BME280;8926;49.720;6.576;2022-07-29T04:08:25;99451.16;;;19.81;54.30
17615;BME280;8926;49.720;6.576;2022-07-29T04:10:51;99452.69;;;19.83;53.28
17615;BME280;8926;49.720;6.576;2022-07-29T04:13:18;99456.47;;;19.81;55.23
17615;BME280;8926;49.720;6.576;2022-07-29T04:15:43;99453.13;;;19.79;55.06
17615;BME280;8926;49.720;6.576;2022-07-29T04:18:09;99450.63;;;19.77;55.67
17615;BME280;8926;49.720;6.576;2022-07-29T04:20:34;99457.09;;;19.75;55.82
17615;BME280;8926;49.720;6.576;2022-07-29T04:22:59;99454.13;;;19.78;54.72
17615;BME280;8926;49.720;6.576;2022-07-29T04:25:24;99456.75;;;19.78;53.87
17615;BME280;8926;49.720;6.576;2022-07-29T04:27:50;99470.03;;;19.78;53.82
17615;BME280;8926;49.720;6.576;2022-07-29T04:30:29;99456.16;;;19.84;54.03
17615;BME280;8926;49.720;6.576;2022-07-29T04:32:55;99465.09;;;19.83;53.76
17615;BME280;8926;49.720;6.576;2022-07-29T04:35:20;99472.38;;;19.81;54.56
17615;BME280;8926;49.720;6.576;2022-07-29T04:37:46;99468.19;;;19.78;54.13
17615;BME280;8926;49.720;6.576;2022-07-29T04:40:11;99472.53;;;19.79;55.25
17615;BME280;8926;49.720;6.576;2022-07-29T04:42:37;99473.34;;;19.80;54.88
17615;BME280;8926;49.720;6.576;2022-07-29T04:45:03;99480.41;;;19.89;54.75
17615;BME280;8926;49.720;6.576;2022-07-29T04:47:28;99480.00;;;20.02;54.53
17615;BME280;8926;49.720;6.576;2022-07-29T04:49:53;99479.16;;;20.01;54.23
17615;BME280;8926;49.720;6.576;2022-07-29T04:52:19;99479.69;;;20.05;55.41
17615;BME280;8926;49.720;6.576;2022-07-29T04:54:44;99482.19;;;20.06;55.04
17615;BME280;8926;49.720;6.576;2022-07-29T04:57:09;99475.97;;;20.15;54.92
17615;BME280;8926;49.720;6.576;2022-07-29T04:59:34;99475.19;;;20.41;54.74
17615;BME280;8926;49.720;6.576;2022-07-29T05:02:00;99472.97;;;20.62;54.13
17615;BME280;8926;49.720;6.576;2022-07-29T05:04:25;99472.03;;;20.71;53.67
17615;BME280;8926;49.720;6.576;2022-07-29T05:06:50;99472.66;;;20.65;53.27
17615;BME280;8926;49.720;6.576;2022-07-29T05:09:16;99480.56;;;20.57;53.03
17615;BME280;8926;49.720;6.576;2022-07-29T05:11:41;99478.38;;;20.78;52.26
17615;BME280;8926;49.720;6.576;2022-07-29T05:14:06;99477.50;;;21.04;52.48
17615;BME280;8926;49.720;6.576;2022-07-29T05:16:31;99490.22;;;21.34;51.46
17615;BME280;8926;49.720;6.576;2022-07-29T05:18:57;99483.81;;;21.61;51.53
17615;BME280;8926;49.720;6.576;2022-07-29T05:21:22;99491.31;;;21.74;50.92
17615;BME280;8926;49.720;6.576;2022-07-29T05:23:47;99494.66;;;21.76;51.91
17615;BME280;8926;49.720;6.576;2022-07-29T05:26:13;99495.31;;;21.94;50.98
17615;BME280;8926;49.720;6.576;2022-07-29T05:28:38;99492.03;;;22.16;51.02
17615;BME280;8926;49.720;6.576;2022-07-29T05:31:03;99488.00;;;22.37;50.16
17615;BME280;8926;49.720;6.576;2022-07-29T05:33:29;99497.31;;;22.57;49.93
17615;BME280;8926;49.720;6.576;2022-07-29T05:35:54;99492.47;;;22.52;49.76
17615;BME280;8926;49.720;6.576;2022-07-29T05:38:19;99491.66;;;22.44;50.17
17615;BME280;8926;49.720;6.576;2022-07-29T05:40:44;99501.00;;;22.31;50.18
17615;BME280;8926;49.720;6.576;2022-07-29T05:43:10;99498.50;;;22.30;50.14
17615;BME280;8926;49.720;6.576;2022-07-29T05:45:35;99500.59;;;22.67;49.84
17615;BME280;8926;49.720;6.576;2022-07-29T05:48:00;99499.19;;;22.95;48.78
17615;BME280;8926;49.720;6.576;2022-07-29T05:50:26;99493.44;;;23.15;49.26
17615;BME280;8926;49.720;6.576;2022-07-29T05:52:51;99498.66;;;23.39;48.43
17615;BME280;8926;49.720;6.576;2022-07-29T05:55:17;99494.28;;;23.54;48.28
17615;BME280;8926;49.720;6.576;2022-07-29T05:57:42;99492.16;;;23.73;47.36
17615;BME280;8926;49.720;6.576;2022-07-29T06:00:09;99495.66;;;23.96;46.86
17615;BME280;8926;49.720;6.576;2022-07-29T06:02:35;99498.09;;;24.20;47.19
17615;BME280;8926;49.720;6.576;2022-07-29T06:05:00;99497.59;;;24.02;46.47
17615;BME280;8926;49.720;6.576;2022-07-29T06:07:26;99498.28;;;24.19;46.34
17615;BME280;8926;49.720;6.576;2022-07-29T06:09:51;99503.53;;;24.35;46.68
17615;BME280;8926;49.720;6.576;2022-07-29T06:12:16;99491.47;;;24.54;45.24
17615;BME280;8926;49.720;6.576;2022-07-29T06:14:42;99503.63;;;24.71;45.35
17615;BME280;8926;49.720;6.576;2022-07-29T06:17:07;99493.72;;;24.94;44.82
17615;BME280;8926;49.720;6.576;2022-07-29T06:19:36;99496.16;;;25.25;43.70
17615;BME280;8926;49.720;6.576;2022-07-29T06:22:01;99493.97;;;25.50;43.61
17615;BME280;8926;49.720;6.576;2022-07-29T06:24:27;99488.06;;;25.69;42.48
17615;BME280;8926;49.720;6.576;2022-07-29T06:26:52;99496.84;;;25.85;43.52
17615;BME280;8926;49.720;6.576;2022-07-29T06:29:17;99497.84;;;26.05;42.43
17615;BME280;8926;49.720;6.576;2022-07-29T06:31:43;99497.59;;;26.21;42.25
17615;BME280;8926;49.720;6.576;2022-07-29T06:34:08;99495.28;;;26.40;41.79
17615;BME280;8926;49.720;6.576;2022-07-29T06:36:35;99498.56;;;26.35;40.56
17615;BME280;8926;49.720;6.576;2022-07-29T06:39:03;99499.06;;;26.52;41.15
17615;BME280;8926;49.720;6.576;2022-07-29T06:41:29;99500.97;;;26.30;41.04
17615;BME280;8926;49.720;6.576;2022-07-29T06:43:54;99490.63;;;26.27;41.18
17615;BME280;8926;49.720;6.576;2022-07-29T06:46:20;99498.09;;;26.31;41.00
17615;BME280;8926;49.720;6.576;2022-07-29T06:48:46;99491.66;;;26.54;40.73
17615;BME280;8926;49.720;6.576;2022-07-29T06:51:15;99493.88;;;26.78;40.14
17615;BME280;8926;49.720;6.576;2022-07-29T06:53:41;99494.34;;;26.88;40.53
17615;BME280;8926;49.720;6.576;2022-07-29T06:56:07;99494.34;;;26.88;40.13
17615;BME280;8926;49.720;6.576;2022-07-29T06:58:37;99490.16;;;26.73;40.67
17615;BME280;8926;49.720;6.576;2022-07-29T07:01:04;99497.47;;;26.57;40.63
17615;BME280;8926;49.720;6.576;2022-07-29T07:03:30;99492.38;;;26.34;40.81
17615;BME280;8926;49.720;6.576;2022-07-29T07:05:56;99499.91;;;26.03;41.41
17615;BME280;8926;49.720;6.576;2022-07-29T07:08:22;99501.31;;;26.20;40.04
17615;BME280;8926;49.720;6.576;2022-07-29T07:10:49;99497.41;;;26.51;40.33
17615;BME280;8926;49.720;6.576;2022-07-29T07:13:14;99500.50;;;26.82;39.66
17615;BME280;8926;49.720;6.576;2022-07-29T07:15:42;99496.41;;;27.21;39.24
17615;BME280;8926;49.720;6.576;2022-07-29T07:18:07;99493.63;;;27.49;38.16
17615;BME280;8926;49.720;6.576;2022-07-29T07:20:34;99503.69;;;27.40;38.70
17615;BME280;8926;49.720;6.576;2022-07-29T07:22:59;99499.81;;;27.49;38.32
17615;BME280;8926;49.720;6.576;2022-07-29T07:25:25;99502.53;;;27.62;38.29
17615;BME280;8926;49.720;6.576;2022-07-29T07:27:50;99500.63;;;27.56;38.58
17615;BME280;8926;49.720;6.576;2022-07-29T07:30:16;99501.72;;;27.62;38.31
17615;BME280;8926;49.720;6.576;2022-07-29T07:32:41;99503.00;;;27.86;37.63
17615;BME280;8926;49.720;6.576;2022-07-29T07:35:08;99496.63;;;28.13;37.32
17615;BME280;8926;49.720;6.576;2022-07-29T07:37:34;99496.03;;;28.37;37.87
17615;BME280;8926;49.720;6.576;2022-07-29T07:40:00;99494.16;;;28.45;37.34
17615;BME280;8926;49.720;6.576;2022-07-29T07:42:26;99493.13;;;28.46;36.11
17615;BME280;8926;49.720;6.576;2022-07-29T07:44:51;99486.47;;;28.61;36.45
17615;BME280;8926;49.720;6.576;2022-07-29T07:47:16;99492.03;;;28.86;36.38
17615;BME280;8926;49.720;6.576;2022-07-29T07:49:48;99484.53;;;29.08;36.03
17615;BME280;8926;49.720;6.576;2022-07-29T07:52:15;99488.06;;;29.02;36.42
17615;BME280;8926;49.720;6.576;2022-07-29T07:54:40;99483.09;;;28.99;36.25
17615;BME280;8926;49.720;6.576;2022-07-29T07:57:06;99485.06;;;29.30;35.97
17615;BME280;8926;49.720;6.576;2022-07-29T07:59:31;99485.25;;;29.35;35.22
17615;BME280;8926;49.720;6.576;2022-07-29T08:01:57;99480.41;;;29.50;34.82
17615;BME280;8926;49.720;6.576;2022-07-29T08:04:22;99479.50;;;29.63;35.46
17615;BME280;8926;49.720;6.576;2022-07-29T08:06:48;99475.47;;;29.79;34.29
17615;BME280;8926;49.720;6.576;2022-07-29T08:09:14;99483.56;;;29.79;34.55
17615;BME280;8926;49.720;6.576;2022-07-29T08:11:40;99478.88;;;29.92;34.08
17615;BME280;8926;49.720;6.576;2022-07-29T08:14:05;99491.66;;;30.10;33.39
17615;BME280;8926;49.720;6.576;2022-07-29T08:16:30;99488.44;;;30.20;33.97
17615;BME280;8926;49.720;6.576;2022-07-29T08:18:56;99483.19;;;30.50;33.49
17615;BME280;8926;49.720;6.576;2022-07-29T08:21:23;99484.47;;;30.47;33.45
17615;BME280;8926;49.720;6.576;2022-07-29T08:23:50;99487.22;;;30.41;33.88
17615;BME280;8926;49.720;6.576;2022-07-29T08:26:18;99486.69;;;30.07;33.10
17615;BME280;8926;49.720;6.576;2022-07-29T08:28:45;99489.00;;;30.28;33.83
17615;BME280;8926;49.720;6.576;2022-07-29T08:31:12;99482.28;;;30.37;32.75
17615;BME280;8926;49.720;6.576;2022-07-29T08:33:37;99480.31;;;30.69;33.83
17615;BME280;8926;49.720;6.576;2022-07-29T08:36:03;99479.34;;;31.00;32.44
17615;BME280;8926;49.720;6.576;2022-07-29T08:38:28;99482.66;;;31.21;32.94
17615;BME280;8926;49.720;6.576;2022-07-29T08:40:54;99469.75;;;31.23;31.73
17615;BME280;8926;49.720;6.576;2022-07-29T08:43:19;99478.53;;;31.48;32.14
17615;BME280;8926;49.720;6.576;2022-07-29T08:45:47;99469.22;;;31.62;31.80
17615;BME280;8926;49.720;6.576;2022-07-29T08:48:14;99471.84;;;31.69;32.34
17615;BME280;8926;49.720;6.576;2022-07-29T08:50:42;99474.16;;;31.65;31.96
17615;BME280;8926;49.720;6.576;2022-07-29T08:53:11;99474.84;;;31.91;32.04
17615;BME280;8926;49.720;6.576;2022-07-29T08:55:40;99472.50;;;31.94;31.80
17615;BME280;8926;49.720;6.576;2022-07-29T08:58:07;99473.06;;;31.85;31.97
17615;BME280;8926;49.720;6.576;2022-07-29T09:00:33;99465.31;;;32.00;31.59
17615;BME280;8926;49.720;6.576;2022-07-29T09:03:01;99468.06;;;32.12;31.93
17615;BME280;8926;49.720;6.576;2022-07-29T09:05:29;99471.53;;;32.00;31.93
17615;BME280;8926;49.720;6.576;2022-07-29T09:07:55;99467.69;;;32.08;31.47
17615;BME280;8926;49.720;6.576;2022-07-29T09:10:20;99468.06;;;32.12;31.08
17615;BME280;8926;49.720;6.576;2022-07-29T09:12:46;99463.09;;;32.09;30.83
17615;BME280;8926;49.720;6.576;2022-07-29T09:15:11;99465.22;;;32.07;31.53
17615;BME280;8926;49.720;6.576;2022-07-29T09:17:45;99468.38;;;31.92;31.42
17615;BME280;8926;49.720;6.576;2022-07-29T09:20:16;99466.59;;;31.86;31.71
17615;BME280;8926;49.720;6.576;2022-07-29T09:22:42;99467.84;;;31.71;31.53
17615;BME280;8926;49.720;6.576;2022-07-29T09:25:08;99460.88;;;31.94;31.82
17615;BME280;8926;49.720;6.576;2022-07-29T09:27:33;99455.00;;;32.20;31.93
17615;BME280;8926;49.720;6.576;2022-07-29T09:30:09;99461.50;;;32.43;31.16
17615;BME280;8926;49.720;6.576;2022-07-29T09:32:56;99453.97;;;32.68;30.17
17615;BME280;8926;49.720;6.576;2022-07-29T09:35:24;99444.41;;;32.77;30.79
17615;BME280;8926;49.720;6.576;2022-07-29T09:37:50;99446.19;;;32.83;30.65
17615;BME280;8926;49.720;6.576;2022-07-29T09:40:16;99443.00;;;32.86;29.79
17615;BME280;8926;49.720;6.576;2022-07-29T09:42:42;99444.16;;;32.90;29.36
17615;BME280;8926;49.720;6.576;2022-07-29T09:45:08;99446.28;;;32.88;29.05
17615;BME280;8926;49.720;6.576;2022-07-29T09:47:51;99437.13;;;32.89;29.37
17615;BME280;8926;49.720;6.576;2022-07-29T09:50:17;99437.59;;;32.86;29.47
17615;BME280;8926;49.720;6.576;2022-07-29T09:52:50;99430.88;;;32.77;28.53
17615;BME280;8926;49.720;6.576;2022-07-29T09:55:16;99433.94;;;32.81;28.46
17615;BME280;8926;49.720;6.576;2022-07-29T09:57:42;99433.03;;;32.63;29.57
17615;BME280;8926;49.720;6.576;2022-07-29T10:00:09;99434.91;;;32.63;28.93
17615;BME280;8926;49.720;6.576;2022-07-29T10:02:37;99435.72;;;32.75;28.82
17615;BME280;8926;49.720;6.576;2022-07-29T10:05:05;99433.72;;;32.82;28.90
17615;BME280;8926;49.720;6.576;2022-07-29T10:07:53;99430.31;;;32.75;28.66
17615;BME280;8926;49.720;6.576;2022-07-29T10:10:23;99423.47;;;32.84;29.03
17615;BME280;8926;49.720;6.576;2022-07-29T10:12:52;99431.25;;;32.69;28.62
17615;BME280;8926;49.720;6.576;2022-07-29T10:15:18;99446.34;;;32.42;28.28
17615;BME280;8926;49.720;6.576;2022-07-29T10:17:44;99444.56;;;32.24;28.92
17615;BME280;8926;49.720;6.576;2022-07-29T10:20:10;99439.41;;;32.46;29.40
17615;BME280;8926;49.720;6.576;2022-07-29T10:22:36;99435.13;;;32.61;28.33
17615;BME280;8926;49.720;6.576;2022-07-29T10:25:01;99427.47;;;32.70;28.87
17615;BME280;8926;49.720;6.576;2022-07-29T10:27:27;99431.94;;;32.76;28.32
17615;BME280;8926;49.720;6.576;2022-07-29T10:29:53;99432.56;;;32.55;27.82
17615;BME280;8926;49.720;6.576;2022-07-29T10:41:02;99448.53;;;32.10;29.02
17615;BME280;8926;49.720;6.576;2022-07-29T10:43:50;99445.16;;;32.37;29.26
17615;BME280;8926;49.720;6.576;2022-07-29T10:46:16;99444.78;;;32.57;27.79
17615;BME280;8926;49.720;6.576;2022-07-29T10:49:12;99440.19;;;32.81;27.49
17615;BME280;8926;49.720;6.576;2022-07-29T10:52:03;99445.06;;;33.08;26.37
17615;BME280;8926;49.720;6.576;2022-07-29T10:54:44;99437.66;;;33.03;26.89
17615;BME280;8926;49.720;6.576;2022-07-29T10:57:24;99432.75;;;33.00;27.50
17615;BME280;8926;49.720;6.576;2022-07-29T11:07:21;99432.78;;;33.17;27.13
17615;BME280;8926;49.720;6.576;2022-07-29T11:15:09;99427.38;;;33.17;26.51
17615;BME280;8926;49.720;6.576;2022-07-29T11:20:41;99432.19;;;32.75;27.40
17615;BME280;8926;49.720;6.576;2022-07-29T11:23:26;99428.09;;;32.60;27.77
17615;BME280;8926;49.720;6.576;2022-07-29T11:28:55;99433.97;;;32.57;26.82
17615;BME280;8926;49.720;6.576;2022-07-29T11:31:41;99436.69;;;32.46;27.25
17615;BME280;8926;49.720;6.576;2022-07-29T11:34:30;99440.34;;;32.28;27.42
17615;BME280;8926;49.720;6.576;2022-07-29T11:39:35;99448.91;;;32.13;28.32
17615;BME280;8926;49.720;6.576;2022-07-29T11:44:57;99445.34;;;32.01;28.33
17615;BME280;8926;49.720;6.576;2022-07-29T11:47:24;99436.63;;;31.99;28.43
17615;BME280;8926;49.720;6.576;2022-07-29T11:49:50;99432.19;;;31.93;28.23
17615;BME280;8926;49.720;6.576;2022-07-29T11:52:16;99433.59;;;32.07;28.37
17615;BME280;8926;49.720;6.576;2022-07-29T11:54:42;99420.22;;;32.35;28.26
17615;BME280;8926;49.720;6.576;2022-07-29T11:57:08;99436.00;;;32.38;27.88
17615;BME280;8926;49.720;6.576;2022-07-29T11:59:41;99425.13;;;32.62;27.76
17615;BME280;8926;49.720;6.576;2022-07-29T12:02:07;99428.69;;;32.74;27.40
17615;BME280;8926;49.720;6.576;2022-07-29T12:04:33;99432.91;;;32.70;26.23
17615;BME280;8926;49.720;6.576;2022-07-29T12:06:58;99430.75;;;32.84;27.19
17615;BME280;8926;49.720;6.576;2022-07-29T12:09:24;99428.88;;;32.84;27.08
17615;BME280;8926;49.720;6.576;2022-07-29T12:11:56;99431.91;;;32.99;26.11
17615;BME280;8926;49.720;6.576;2022-07-29T12:14:26;99425.59;;;32.82;25.58
17615;BME280;8926;49.720;6.576;2022-07-29T12:16:52;99421.81;;;32.83;26.20
17615;BME280;8926;49.720;6.576;2022-07-29T12:19:17;99425.59;;;32.82;26.51
17615;BME280;8926;49.720;6.576;2022-07-29T12:21:47;99419.44;;;32.98;26.00
17615;BME280;8926;49.720;6.576;2022-07-29T12:24:13;99409.84;;;33.08;24.76
17615;BME280;8926;49.720;6.576;2022-07-29T12:26:51;99409.22;;;32.89;24.98
17615;BME280;8926;49.720;6.576;2022-07-29T12:29:17;99419.00;;;32.78;25.77
17615;BME280;8926;49.720;6.576;2022-07-29T12:31:43;99417.13;;;32.67;25.04
17615;BME280;8926;49.720;6.576;2022-07-29T12:34:10;99411.50;;;32.57;25.38
17615;BME280;8926;49.720;6.576;2022-07-29T12:36:36;99413.47;;;32.73;25.98
17615;BME280;8926;49.720;6.576;2022-07-29T12:39:02;99417.25;;;32.72;25.31
17615;BME280;8926;49.720;6.576;2022-07-29T12:41:28;99412.19;;;32.64;25.61
17615;BME280;8926;49.720;6.576;2022-07-29T12:43:55;99413.72;;;32.60;25.86
17615;BME280;8926;49.720;6.576;2022-07-29T12:46:20;99412.94;;;32.48;25.88
17615;BME280;8926;49.720;6.576;2022-07-29T12:48:50;99402.59;;;32.45;25.73
17615;BME280;8926;49.720;6.576;2022-07-29T12:51:31;99394.84;;;32.36;25.82
17615;BME280;8926;49.720;6.576;2022-07-29T12:54:10;99404.47;;;32.32;25.80
17615;BME280;8926;49.720;6.576;2022-07-29T12:56:37;99405.88;;;32.23;26.24
17615;BME280;8926;49.720;6.576;2022-07-29T12:59:14;99413.19;;;32.34;26.15
17615;BME280;8926;49.720;6.576;2022-07-29T13:01:39;99400.56;;;32.52;26.09
17615;BME280;8926;49.720;6.576;2022-07-29T13:04:05;99399.72;;;32.63;25.91
17615;BME280;8926;49.720;6.576;2022-07-29T13:06:37;99404.19;;;32.69;26.15
17615;BME280;8926;49.720;6.576;2022-07-29T13:11:39;99406.66;;;32.70;25.66
17615;BME280;8926;49.720;6.576;2022-07-29T13:14:05;99411.50;;;32.57;26.25
17615;BME280;8926;49.720;6.576;2022-07-29T13:16:31;99412.44;;;32.51;25.84
17615;BME280;8926;49.720;6.576;2022-07-29T13:19:10;99412.44;;;32.51;25.51
17615;BME280;8926;49.720;6.576;2022-07-29T13:21:37;99410.78;;;32.50;25.43
17615;BME280;8926;49.720;6.576;2022-07-29T13:24:04;99408.94;;;32.38;25.47
17615;BME280;8926;49.720;6.576;2022-07-29T13:26:30;99413.41;;;32.45;25.00
17615;BME280;8926;49.720;6.576;2022-07-29T13:28:56;99419.28;;;32.42;24.80
17615;BME280;8926;49.720;6.576;2022-07-29T13:31:22;99409.41;;;32.35;24.85
17615;BME280;8926;49.720;6.576;2022-07-29T13:33:47;99419.53;;;32.28;23.89
17615;BME280;8926;49.720;6.576;2022-07-29T13:36:13;99418.91;;;32.15;23.81
17615;BME280;8926;49.720;6.576;2022-07-29T13:38:38;99415.28;;;32.09;23.96
17615;BME280;8926;49.720;6.576;2022-07-29T13:41:03;99417.50;;;32.00;24.29
17615;BME280;8926;49.720;6.576;2022-07-29T13:43:29;99419.00;;;31.96;24.42
17615;BME280;8926;49.720;6.576;2022-07-29T13:45:54;99425.16;;;32.15;24.27
17615;BME280;8926;49.720;6.576;2022-07-29T13:48:20;99414.25;;;32.22;24.37
17615;BME280;8926;49.720;6.576;2022-07-29T13:50:45;99411.03;;;32.13;24.83